Flight Track Log - Related Links

Times and Time Zones

All times are in EDT time to prevent confusion due to time zone crossing. See the N66BS flight status page for this flight to view local times or setup timezone preferences in your user account.

Time Position Orientation Groundspeed Altitude Reporting Facility
EDT Latitude Longitude Course Direction KTS MPH feet Rate Location/Type
Sun 07:04:14 PM 30.1367 -97.7425 208° Southwest 148 170 6,300  Level Houston Center
Sun 07:05:18 PM 30.1242 -97.7886 253° West 149 171 8,200 1,839 Climbing Houston Center
Sun 07:06:18 PM 30.1103 -97.8378 252° West 156 180 10,100 1,736 Climbing Houston Center
Sun 07:07:19 PM 30.0914 -97.8919 248° West 161 185 11,700 1,366 Climbing Houston Center
Sun 07:08:00 PM 29.8706 -97.8705 208° Southwest  Level Estimated
Sun 07:08:21 PM 30.0575 -97.9422 232° Southwest 186 214 12,900  Level Houston Center
Sun 07:09:00 PM 29.8165 -97.9038 208° Southwest  Level Estimated
Sun 07:09:23 PM 30.0217 -97.9828 224° Southwest 181 208 14,200  Level Houston Center
Sun 07:10:25 PM 29.9875 -98.0294 230° Southwest 177 204 15,500 1,171 Climbing Houston Center
Sun 07:11:26 PM 29.9539 -98.0703 226° Southwest 175 201 16,600 976 Climbing Houston Center
Sun 07:12:28 PM 29.9203 -98.1136 228° Southwest 179 206 17,500 919 Climbing Houston Center
Sun 07:13:30 PM 29.8825 -98.1608 227° Southwest 186 214 18,500 871 Climbing Houston Center
Sun 07:14:32 PM 29.8469 -98.2061 228° Southwest 190 219 19,300 829 Climbing Houston Center
Sun 07:15:33 PM 29.8122 -98.2506 228° Southwest 186 214 20,200 878 Climbing Houston Center
Sun 07:16:35 PM 29.7742 -98.2986 228° Southwest 188 216 21,100 823 Climbing Houston Center
Sun 07:17:37 PM 29.7381 -98.3444 228° Southwest 191 220 21,900 774 Climbing Houston Center
Sun 07:18:39 PM 29.7000 -98.3919 227° Southwest 188 216 22,700 726 Climbing Houston Center
Sun 07:19:41 PM 29.6647 -98.4364 228° Southwest 189 217 23,400 629 Climbing Houston Center
Sun 07:20:43 PM 29.6278 -98.4767 223° Southwest 182 209 24,000 293 Climbing Houston Center
Sun 07:21:44 PM 29.5792 -98.5014 204° Southwest 201 231 24,000  Level Houston Center
Sun 07:22:46 PM 29.5097 -98.5281 198° South 226 260 24,000  Level Houston Center
Sun 07:23:48 PM 29.4472 -98.5636 206° Southwest 232 267 24,000  Level Houston Center
Sun 07:24:50 PM 29.3892 -98.5933 204° Southwest 230 265 24,000  Level Houston Center
Sun 07:25:52 PM 29.3247 -98.6247 203° Southwest 233 268 24,000  Level Houston Center
Sun 07:26:54 PM 29.2667 -98.6558 205° Southwest 232 267 24,000  Level Houston Center
Sun 07:27:56 PM 29.2025 -98.6881 204° Southwest 233 268 24,000  Level Houston Center
Sun 07:28:58 PM 29.1422 -98.7181 203° Southwest 236 272 24,000  Level Houston Center
Sun 07:29:59 PM 29.0819 -98.7492 204° Southwest 235 270 24,000  Level Houston Center
Sun 07:31:01 PM 29.0178 -98.7817 204° Southwest 235 270 24,000  Level Houston Center
Sun 07:32:03 PM 28.9575 -98.8117 204° Southwest 236 272 24,000  Level Houston Center
Sun 07:33:05 PM 28.8931 -98.8447 204° Southwest 235 270 24,000  Level Houston Center
Sun 07:34:07 PM 28.8322 -98.8753 204° Southwest 238 274 24,000  Level Houston Center
Sun 07:35:09 PM 28.7708 -98.9053 203° Southwest 239 275 24,000  Level Houston Center
Sun 07:36:11 PM 28.7056 -98.9375 203° Southwest 236 272 24,000  Level Houston Center
Sun 07:37:13 PM 28.6489 -98.9664 204° Southwest 239 275 24,000  Level Houston Center
Sun 07:38:14 PM 28.5883 -98.9972 204° Southwest 239 275 24,000  Level Houston Center
Sun 07:39:16 PM 28.5272 -99.0275 204° Southwest 238 274 24,000  Level Houston Center
Sun 07:40:18 PM 28.4667 -99.0572 203° Southwest 237 273 24,000  Level Houston Center
Sun 07:41:20 PM 28.3942 -99.0931 204° Southwest 236 272 24,000  Level Houston Center
Sun 07:42:22 PM 28.3322 -99.1244 204° Southwest 242 278 24,000  Level Houston Center
Sun 07:43:24 PM 28.2717 -99.1547 204° Southwest 239 275 24,000  Level Houston Center
Sun 07:44:26 PM 28.2114 -99.1847 204° Southwest 237 273 24,000  Level Houston Center
Sun 07:45:27 PM 28.1506 -99.2161 204° Southwest 239 275 24,000  Level Houston Center
Sun 07:46:29 PM 28.0894 -99.2453 203° Southwest 238 274 24,000  Level Houston Center
Sun 07:47:31 PM 28.0161 -99.2825 204° Southwest 239 275 24,000  Level Houston Center
Sun 07:48:33 PM 27.9553 -99.3128 204° Southwest 240 276 24,000  Level Houston Center
Sun 07:49:35 PM 27.8950 -99.3414 203° Southwest 236 272 24,000  Level Houston Center
Sun 07:50:37 PM 27.8342 -99.3719 204° Southwest 238 274 24,000  Level Houston Center
Sun 07:51:39 PM 27.7733 -99.4025 204° Southwest 239 275 24,000  Level Houston Center
Sun 07:52:41 PM 27.7006 -99.4381 203° Southwest 238 274 24,000  Level Houston Center
Sun 07:53:43 PM 27.6397 -99.4689 204° Southwest 239 275 24,000  Level Houston Center
Sun 07:54:45 PM 27.5792 -99.4983 203° Southwest 237 273 24,000  Level Houston Center
Sun 07:56:00 PM 27.5083 -99.5271 214° Southwest  Level FlightAware Approximate
Sun 08:03:00 PM 27.1076 -99.6965 202° Southwest  Level FlightAware Approximate
Sun 08:04:00 PM 27.0506 -99.7215 201° Southwest  Level FlightAware Approximate
Sun 08:05:00 PM 26.9935 -99.7463 201° Southwest  Level FlightAware Approximate
Sun 08:06:00 PM 26.9364 -99.7711 201° Southwest  Level FlightAware Approximate
Sun 08:07:00 PM 26.8793 -99.7959 201° Southwest  Level FlightAware Approximate
Sun 08:08:00 PM 26.8222 -99.8206 201° Southwest  Level FlightAware Approximate
Sun 08:09:00 PM 26.7651 -99.8454 201° Southwest  Level FlightAware Approximate
Sun 08:10:00 PM 26.7079 -99.8701 201° Southwest  Level FlightAware Approximate
Sun 08:11:00 PM 26.6508 -99.8947 201° Southwest  Level FlightAware Approximate
Sun 08:12:00 PM 26.5937 -99.9195 202° Southwest  Level FlightAware Approximate
Sun 08:13:00 PM 26.5368 -99.9448 202° Southwest  Level FlightAware Approximate
Sun 08:14:00 PM 26.4799 -99.9701 202° Southwest  Level FlightAware Approximate
Sun 08:15:00 PM 26.4228 -99.9947 200° South  Level FlightAware Approximate
Sun 08:16:00 PM 26.3654 -100.0186 200° South  Level FlightAware Approximate
Sun 08:17:00 PM 26.3081 -100.0425 200° South  Level FlightAware Approximate
Sun 08:18:00 PM 26.2507 -100.0664 200° South  Level FlightAware Approximate
Sun 08:19:00 PM 26.1931 -100.0895 200° South  Level FlightAware Approximate
Sun 08:20:00 PM 26.1354 -100.1125 200° South  Level FlightAware Approximate
Sun 08:21:00 PM 26.0790 -100.1377 222° Southwest  Level FlightAware Approximate
Sun 08:22:00 PM 26.0238 -100.1643 197° South  Level FlightAware Approximate
Sun 08:23:00 PM 25.9661 -100.1869 200° South  Level FlightAware Approximate
Sun 08:24:00 PM 25.9114 -100.2164 214° Southwest  Level FlightAware Approximate
Sun 08:25:00 PM 25.8667 -100.2500 214° Southwest  Level FlightAware Approximate
Sun 08:26:00 PM 25.8656 -100.2372 214° Southwest  Level Estimated
Sun 08:27:00 PM 25.8656 -100.2372 214° Southwest  Level Estimated
Sun 08:28:00 PM 25.8656 -100.2372 214° Southwest  Level Estimated
Sun 08:29:00 PM 25.8656 -100.2372 214° Southwest  Level Estimated
Sun 08:30:00 PM 25.8656 -100.2372 214° Southwest  Level Estimated
Sun 08:31:00 PM 25.8656 -100.2372 214° Southwest  Level Estimated
Sun 08:32:00 PM 25.8656 -100.2372 214° Southwest  Level Estimated
Sun 08:33:00 PM 25.8656 -100.2372 214° Southwest  Level Estimated
Sun 08:34:00 PM 25.8656 -100.2372 214° Southwest  Level Estimated
Sun 08:35:00 PM 25.8656 -100.2372 214° Southwest  Level Estimated
Sun 08:36:00 PM 25.8656 -100.2372 214° Southwest  Level Estimated
Sun 08:37:00 PM 25.8656 -100.2372 214° Southwest  Level Estimated
Sun 08:38:00 PM 25.8656 -100.2372 214° Southwest  Level Estimated
Sun 08:39:00 PM 25.8656 -100.2372 214° Southwest  Level Estimated
Sun 08:40:00 PM 25.8656 -100.2372 214° Southwest  Level Estimated
Sun 08:41:00 PM 25.8656 -100.2372 214° Southwest  Level Estimated
Sun 08:42:00 PM 25.8656 -100.2372 214° Southwest  Level Estimated
Sun 08:43:00 PM 25.8656 -100.2372 214° Southwest  Level Estimated
Sun 08:44:00 PM 25.8656 -100.2372 214° Southwest  Level Estimated
Sun 08:45:00 PM 25.8656 -100.2372 214° Southwest  Level Estimated
Sun 08:46:00 PM 25.8656 -100.2372 214° Southwest  Level Estimated
Sun 08:47:00 PM 25.8656 -100.2372 214° Southwest  Level Estimated
Sun 08:48:00 PM 25.8656 -100.2372 214° Southwest  Level Estimated
Sun 08:49:00 PM 25.8656 -100.2372 214° Southwest  Level Estimated
Sun 08:50:00 PM 25.8656 -100.2372 214° Southwest  Level Estimated
Sun 08:51:00 PM 25.8656 -100.2372 214° Southwest  Level Estimated
Sun 08:52:00 PM 25.8656 -100.2372 214° Southwest  Level Estimated
Sun 08:53:00 PM 25.8656 -100.2372 214° Southwest  Level Estimated
Sun 08:54:00 PM 25.8656 -100.2372 214° Southwest  Level Estimated
Sun 08:55:00 PM 25.8656 -100.2372 214° Southwest  Level Estimated
Sun 08:56:00 PM 25.8656 -100.2372 214° Southwest  Level Estimated
Sun 08:57:00 PM 25.8656 -100.2372 214° Southwest  Level Estimated
Sun 08:58:00 PM 25.8656 -100.2372 214° Southwest  Level Estimated
Sun 08:59:00 PM 25.8656 -100.2372 214° Southwest  Level Estimated
Sun 09:00:00 PM 25.8656 -100.2372 214° Southwest  Level Estimated
Sun 09:01:00 PM 25.8656 -100.2372 214° Southwest  Level Estimated
Sun 09:02:00 PM 25.8656 -100.2372 214° Southwest  Level Estimated
Sun 09:03:00 PM 25.8656 -100.2372 214° Southwest  Level Estimated
Sun 09:04:00 PM 25.8656 -100.2372 214° Southwest  Level Estimated
Sun 09:05:00 PM 25.8656 -100.2372 214° Southwest  Level Estimated
Sun 09:06:00 PM 25.8656 -100.2372 214° Southwest  Level Estimated
Sun 09:07:00 PM 25.8656 -100.2372 214° Southwest  Level Estimated
Sun 09:08:00 PM 25.8656 -100.2372 214° Southwest  Level Estimated
Sun 09:09:00 PM 25.8656 -100.2372 214° Southwest  Level Estimated
Sun 09:10:00 PM 25.8656 -100.2372 214° Southwest  Level Estimated
Sun 09:11:00 PM 25.8656 -100.2372 214° Southwest  Level Estimated
Sun 09:12:00 PM 25.8656 -100.2372 214° Southwest  Level Estimated

Login

Don't have an account? Register now (free) for customized features, flight alerts, and more!